Time;durP1;ratioP1;P1;durP2;ratioP2;P2;SDS_P1;SDS_P2;PMS_P1;PMS_P2;Temp;Humidity;BMP_temperature;BMP_pressure;BME280_temperature;BME280_humidity;BME280_pressure;Samples;Min_cycle;Max_cycle;Signal;HPM_P1;HPM_P2
2022/10/30 00:02:08;;;;;;;16.17;8.05;;;8.10;99.90;;;;;;5051815;28;20028;-51
2022/10/30 00:04:33;;;;;;;20.33;7.97;;;8.10;99.90;;;;;;5051909;28;20488;-52
2022/10/30 00:06:59;;;;;;;16.27;7.20;;;8.10;99.90;;;;;;5051032;28;20063;-51
2022/10/30 00:09:25;;;;;;;11.82;7.63;;;8.10;99.90;;;;;;5051431;28;20080;-50
2022/10/30 00:11:50;;;;;;;18.25;8.52;;;8.10;99.90;;;;;;5051916;28;20039;-52
2022/10/30 00:14:17;;;;;;;16.77;8.57;;;8.00;99.90;;;;;;5051712;28;20033;-51
2022/10/30 00:16:42;;;;;;;20.05;8.07;;;8.00;99.90;;;;;;5051845;28;20392;-51
2022/10/30 00:19:08;;;;;;;18.15;8.40;;;8.00;99.90;;;;;;5051999;28;20040;-51
2022/10/30 00:21:34;;;;;;;16.38;9.43;;;8.00;99.90;;;;;;5051517;28;20039;-51
2022/10/30 00:23:59;;;;;;;20.00;8.25;;;8.00;99.90;;;;;;5051768;28;20131;-50
2022/10/30 00:26:25;;;;;;;15.10;8.20;;;7.90;99.90;;;;;;5051515;28;20060;-49
2022/10/30 00:28:53;;;;;;;16.77;8.73;;;7.90;99.90;;;;;;5051702;28;20090;-51
2022/10/30 00:31:19;;;;;;;18.17;9.18;;;7.90;99.90;;;;;;5066825;28;20439;-50
2022/10/30 00:33:50;;;;;;;14.75;8.10;;;7.90;99.90;;;;;;5051629;28;20029;-50
2022/10/30 00:36:15;;;;;;;13.25;8.10;;;7.80;99.90;;;;;;5051474;28;20029;-51
2022/10/30 00:38:41;;;;;;;12.38;8.30;;;7.80;99.90;;;;;;5051274;28;20549;-51
2022/10/30 00:41:12;;;;;;;14.05;8.00;;;7.80;99.90;;;;;;5051542;28;20056;-52
2022/10/30 00:43:39;;;;;;;15.38;8.63;;;7.90;99.90;;;;;;5051453;28;20025;-50
2022/10/30 00:46:07;;;;;;;14.40;7.75;;;7.90;99.90;;;;;;5051312;28;20106;-51
2022/10/30 00:48:34;;;;;;;15.35;7.85;;;7.90;99.90;;;;;;5051374;28;20108;-51
2022/10/30 00:51:01;;;;;;;16.02;9.65;;;7.80;99.90;;;;;;5051453;28;20036;-52
2022/10/30 00:53:28;;;;;;;16.00;9.25;;;7.80;99.90;;;;;;5051135;28;20456;-51
2022/10/30 00:55:57;;;;;;;14.80;7.57;;;7.80;99.90;;;;;;5066773;28;20376;-52
2022/10/30 00:58:31;;;;;;;17.25;7.70;;;7.80;99.90;;;;;;5051267;28;20055;-50
2022/10/30 01:01:01;;;;;;;15.05;8.02;;;7.80;99.90;;;;;;5051037;28;20095;-50
2022/10/30 01:03:28;;;;;;;17.65;8.40;;;7.80;99.90;;;;;;5051253;28;20407;-51
2022/10/30 01:05:57;;;;;;;13.82;7.95;;;7.80;99.90;;;;;;5051184;28;20071;-51
2022/10/30 01:08:23;;;;;;;16.25;9.15;;;7.80;99.90;;;;;;5049874;28;20044;-51
2022/10/30 01:10:49;;;;;;;13.00;9.60;;;7.80;99.90;;;;;;5051303;28;20059;-53
2022/10/30 01:13:17;;;;;;;17.90;8.80;;;7.80;99.90;;;;;;5051176;28;20041;-52
2022/10/30 01:16:06;;;;;;;14.95;8.25;;;7.80;99.90;;;;;;5051087;28;20515;-51
2022/10/30 01:19:02;;;;;;;11.30;7.97;;;7.70;99.90;;;;;;5053515;28;20086;-53
2022/10/30 01:21:49;;;;;;;13.13;8.27;;;7.70;99.90;;;;;;5054540;28;20033;-50
2022/10/30 01:24:36;;;;;;;11.82;7.15;;;7.70;99.90;;;;;;5054871;28;20025;-50
2022/10/30 01:27:40;;;;;;;17.90;8.20;;;7.70;99.90;;;;;;5054999;28;20014;-51
2022/10/30 01:30:19;;;;;;;16.20;8.02;;;7.70;99.90;;;;;;5054752;28;20056;-50
2022/10/30 01:32:45;;;;;;;14.73;8.40;;;7.80;99.90;;;;;;5054302;28;20025;-50
2022/10/30 01:35:17;;;;;;;13.90;7.05;;;7.80;99.90;;;;;;5053763;28;20108;-50
2022/10/30 01:37:46;;;;;;;14.32;8.02;;;7.80;99.90;;;;;;5069148;28;20021;-51
2022/10/30 01:40:15;;;;;;;12.15;7.05;;;7.80;99.90;;;;;;5054408;28;20403;-52
2022/10/30 01:42:49;;;;;;;15.63;6.63;;;7.80;99.90;;;;;;5053722;28;20025;-50
2022/10/30 01:45:20;;;;;;;20.83;6.85;;;7.80;99.90;;;;;;5053493;28;20427;-49
2022/10/30 01:48:19;;;;;;;9.50;7.43;;;7.80;99.90;;;;;;5069754;28;20445;-50
2022/10/30 01:50:56;;;;;;;10.57;6.47;;;7.80;99.90;;;;;;5054292;28;20036;-50
2022/10/30 01:54:14;;;;;;;11.50;6.18;;;7.80;99.90;;;;;;5054336;28;20025;-53
2022/10/30 01:56:48;;;;;;;8.57;6.15;;;7.90;99.90;;;;;;5054197;28;20106;-51
2022/10/30 01:59:24;;;;;;;13.68;7.00;;;7.90;99.90;;;;;;5054101;28;20032;-50
2022/10/30 02:01:51;;;;;;;15.50;7.07;;;7.90;99.90;;;;;;5069526;28;20091;-50
2022/10/30 02:04:16;;;;;;;14.35;7.03;;;7.90;99.90;;;;;;5054070;28;20023;-52
2022/10/30 02:06:42;;;;;;;11.63;6.03;;;7.90;99.90;;;;;;5054219;28;20017;-50
2022/10/30 02:09:08;;;;;;;10.48;6.88;;;7.90;99.90;;;;;;5054056;28;20542;-50
2022/10/30 02:11:35;;;;;;;11.25;7.47;;;7.90;99.90;;;;;;5053989;28;20048;-50
2022/10/30 02:14:05;;;;;;;10.07;6.10;;;7.90;99.90;;;;;;5053943;28;20017;-52
2022/10/30 02:16:34;;;;;;;12.00;6.25;;;7.90;99.90;;;;;;5053903;28;20033;-50
2022/10/30 02:19:01;;;;;;;13.25;5.93;;;7.80;99.90;;;;;;5053883;28;20048;-51
2022/10/30 02:21:27;;;;;;;15.63;6.72;;;7.80;99.90;;;;;;5053784;28;20060;-50
2022/10/30 02:23:52;;;;;;;15.40;5.80;;;7.80;99.90;;;;;;5053870;28;20033;-51
2022/10/30 02:26:23;;;;;;;11.90;5.85;;;7.80;99.90;;;;;;5053814;28;20017;-53
2022/10/30 02:28:48;;;;;;;16.05;6.03;;;7.80;99.90;;;;;;5052684;28;20679;-49
2022/10/30 02:31:14;;;;;;;17.77;6.28;;;7.70;99.90;;;;;;5053613;28;20107;-50
2022/10/30 02:33:45;;;;;;;10.65;5.30;;;7.80;99.90;;;;;;5053529;28;20021;-51
2022/10/30 02:36:10;;;;;;;14.55;6.72;;;7.70;99.90;;;;;;5053680;28;20104;-49
2022/10/30 02:38:36;;;;;;;10.25;6.07;;;7.80;99.90;;;;;;5053659;28;20112;-50
2022/10/30 02:41:01;;;;;;;16.60;7.18;;;7.70;99.90;;;;;;5053491;28;20085;-53
2022/10/30 02:43:30;;;;;;;23.17;8.95;;;7.70;99.90;;;;;;5053266;28;20070;-51
2022/10/30 02:45:56;;;;;;;8.10;6.00;;;7.70;99.90;;;;;;5053548;28;20029;-50
2022/10/30 02:48:21;;;;;;;13.93;6.60;;;7.70;99.90;;;;;;5053324;28;20013;-51
2022/10/30 02:50:47;;;;;;;12.50;5.35;;;7.70;99.90;;;;;;5053323;28;20103;-52
2022/10/30 02:53:13;;;;;;;10.15;5.80;;;7.60;99.90;;;;;;5053219;28;20029;-50
2022/10/30 02:55:38;;;;;;;10.43;6.65;;;7.60;99.90;;;;;;5053374;28;20368;-51
2022/10/30 02:58:04;;;;;;;15.40;7.03;;;7.60;99.90;;;;;;5053124;28;20440;-50
2022/10/30 03:00:29;;;;;;;14.52;6.63;;;7.60;99.90;;;;;;5051690;28;20025;-51
2022/10/30 03:02:56;;;;;;;20.42;5.88;;;7.60;99.90;;;;;;5053054;28;20017;-51
2022/10/30 03:05:21;;;;;;;14.23;5.97;;;7.60;99.90;;;;;;5053044;28;20029;-51
2022/10/30 03:07:47;;;;;;;17.63;6.45;;;7.60;99.90;;;;;;5052827;28;20095;-50
2022/10/30 03:10:14;;;;;;;13.77;6.88;;;7.60;99.90;;;;;;5052816;28;20048;-50
2022/10/30 03:12:40;;;;;;;15.13;7.30;;;7.60;99.90;;;;;;5052981;28;20421;-51
2022/10/30 03:15:06;;;;;;;11.50;6.68;;;7.60;99.90;;;;;;5052846;28;20056;-51
2022/10/30 03:17:32;;;;;;;15.13;6.18;;;7.50;99.90;;;;;;5052714;28;20112;-50
2022/10/30 03:19:57;;;;;;;16.98;6.45;;;7.50;99.90;;;;;;5051641;28;20120;-50
2022/10/30 03:22:23;;;;;;;18.00;6.07;;;7.50;99.90;;;;;;5052625;28;20025;-52
2022/10/30 03:24:48;;;;;;;11.18;6.25;;;7.40;99.90;;;;;;5052701;28;20021;-50
2022/10/30 03:27:14;;;;;;;13.70;6.70;;;7.50;99.90;;;;;;5052735;28;20423;-50
2022/10/30 03:29:40;;;;;;;22.30;7.25;;;7.50;99.90;;;;;;5052637;28;20499;-51
2022/10/30 03:32:10;;;;;;;14.32;6.72;;;7.50;99.90;;;;;;5052470;28;20498;-51
2022/10/30 03:34:36;;;;;;;24.77;8.57;;;7.50;99.90;;;;;;5052542;28;20043;-50
2022/10/30 03:37:03;;;;;;;15.90;6.20;;;7.50;99.90;;;;;;5052499;28;20053;-50
2022/10/30 03:39:28;;;;;;;11.35;6.35;;;7.50;99.90;;;;;;5050976;28;20039;-52
2022/10/30 03:41:54;;;;;;;18.25;6.65;;;7.50;99.90;;;;;;5052220;28;20029;-50
2022/10/30 03:44:20;;;;;;;15.80;6.07;;;7.40;99.90;;;;;;5052258;28;20036;-51
2022/10/30 03:46:45;;;;;;;10.75;5.97;;;7.40;99.90;;;;;;5052285;28;20029;-51
2022/10/30 03:49:11;;;;;;;13.27;5.75;;;7.40;99.90;;;;;;5052373;28;20060;-51
2022/10/30 03:51:36;;;;;;;15.20;7.00;;;7.40;99.90;;;;;;5052100;28;20107;-51
2022/10/30 03:54:02;;;;;;;9.98;5.97;;;7.40;99.90;;;;;;5051989;28;20036;-50
2022/10/30 03:56:28;;;;;;;20.05;8.90;;;7.40;99.90;;;;;;5052055;28;20052;-51
2022/10/30 03:58:54;;;;;;;18.85;6.07;;;7.40;99.90;;;;;;5052087;28;20456;-51
2022/10/30 04:01:20;;;;;;;23.67;6.57;;;7.40;99.90;;;;;;5051755;28;20043;-50
2022/10/30 04:03:46;;;;;;;16.92;6.28;;;7.40;99.90;;;;;;5052054;28;20033;-53
2022/10/30 04:06:12;;;;;;;17.05;6.15;;;7.30;99.90;;;;;;5052026;28;20029;-53
2022/10/30 04:08:38;;;;;;;13.57;6.05;;;7.30;99.90;;;;;;5051638;28;20033;-51
2022/10/30 04:11:03;;;;;;;15.10;6.38;;;7.30;99.90;;;;;;5051816;28;20066;-53
2022/10/30 04:13:32;;;;;;;17.02;5.75;;;7.30;99.90;;;;;;5051615;28;20480;-51
2022/10/30 04:15:57;;;;;;;12.80;6.30;;;7.20;99.90;;;;;;5051713;28;20025;-52
2022/10/30 04:18:24;;;;;;;18.90;6.82;;;7.20;99.90;;;;;;5051669;28;20036;-50
2022/10/30 04:20:50;;;;;;;13.25;6.05;;;7.20;99.90;;;;;;5051624;28;20036;-50
2022/10/30 04:23:18;;;;;;;12.23;6.47;;;7.20;99.90;;;;;;5051527;28;20103;-54
2022/10/30 04:25:43;;;;;;;23.50;7.40;;;7.10;99.90;;;;;;5051554;28;20023;-55
2022/10/30 04:28:09;;;;;;;17.58;6.95;;;7.10;99.90;;;;;;5051643;28;20027;-51
2022/10/30 04:30:37;;;;;;;23.77;6.82;;;7.10;99.90;;;;;;5051542;28;20049;-51
2022/10/30 04:33:05;;;;;;;14.15;6.90;;;7.10;99.90;;;;;;5051702;28;20392;-52
2022/10/30 04:35:37;;;;;;;20.60;6.80;;;7.10;99.90;;;;;;5051399;28;20029;-51
2022/10/30 04:38:05;;;;;;;10.40;5.55;;;7.00;99.90;;;;;;5051436;28;20079;-51
2022/10/30 04:40:34;;;;;;;11.52;5.13;;;7.00;99.90;;;;;;5051277;28;20033;-51
2022/10/30 04:43:01;;;;;;;10.95;5.75;;;7.00;99.90;;;;;;5051307;28;20546;-53
2022/10/30 04:45:27;;;;;;;8.57;5.30;;;6.90;99.90;;;;;;5051441;28;20025;-52
2022/10/30 04:48:03;;;;;;;13.88;5.53;;;6.90;99.90;;;;;;5051433;28;20029;-52
2022/10/30 04:50:30;;;;;;;14.63;5.55;;;6.90;99.90;;;;;;5054758;28;20027;-52
2022/10/30 04:53:09;;;;;;;12.82;6.18;;;6.90;99.90;;;;;;5073116;28;20020;-50
2022/10/30 04:55:34;;;;;;;9.05;5.50;;;6.90;99.90;;;;;;5075360;28;20480;-51
2022/10/30 04:58:03;;;;;;;8.05;4.70;;;6.90;99.90;;;;;;5074267;28;20048;-53
2022/10/30 05:00:29;;;;;;;14.43;5.40;;;6.80;99.90;;;;;;5075256;28;20551;-50
2022/10/30 05:03:00;;;;;;;17.25;5.45;;;6.80;99.90;;;;;;5075380;28;20016;-52
2022/10/30 05:05:27;;;;;;;18.88;5.80;;;6.80;99.90;;;;;;5075310;28;20029;-50
2022/10/30 05:07:53;;;;;;;21.08;6.57;;;6.80;99.90;;;;;;5075099;28;20082;-52
2022/10/30 05:10:19;;;;;;;10.45;5.32;;;6.70;99.90;;;;;;5075295;28;20032;-50
2022/10/30 05:12:45;;;;;;;7.25;4.95;;;6.80;99.90;;;;;;5073971;28;20056;-50
2022/10/30 05:15:12;;;;;;;14.90;6.38;;;6.70;99.90;;;;;;5075154;28;20040;-51
2022/10/30 05:17:38;;;;;;;17.33;5.65;;;6.70;99.90;;;;;;5073969;28;20024;-50
2022/10/30 05:20:05;;;;;;;11.05;4.90;;;6.70;99.90;;;;;;5074865;28;20478;-51
2022/10/30 05:22:30;;;;;;;8.68;5.35;;;6.70;99.90;;;;;;5074964;28;20446;-51
2022/10/30 05:24:56;;;;;;;13.73;6.00;;;6.70;99.90;;;;;;5075142;28;20116;-51
2022/10/30 05:27:22;;;;;;;14.43;6.15;;;6.70;99.90;;;;;;5074827;28;20063;-51
2022/10/30 05:29:47;;;;;;;13.63;6.30;;;6.70;99.90;;;;;;5074879;28;20119;-51
2022/10/30 05:32:13;;;;;;;8.40;5.68;;;6.70;99.90;;;;;;5074715;28;20079;-51
2022/10/30 05:34:38;;;;;;;15.95;6.97;;;6.70;99.90;;;;;;5074670;28;20535;-51
2022/10/30 05:37:04;;;;;;;12.20;6.15;;;6.70;99.90;;;;;;5074623;28;20155;-51
2022/10/30 05:39:30;;;;;;;12.10;7.10;;;6.70;99.90;;;;;;5074794;28;20040;-52
2022/10/30 05:41:55;;;;;;;12.57;6.45;;;6.70;99.90;;;;;;5074567;28;20035;-53
2022/10/30 05:44:21;;;;;;;12.52;6.60;;;6.70;99.90;;;;;;5074645;28;20029;-50
2022/10/30 05:46:46;;;;;;;6.82;5.25;;;6.70;99.90;;;;;;5074544;28;20024;-50
2022/10/30 05:49:12;;;;;;;12.00;6.20;;;6.70;99.90;;;;;;5074361;28;20021;-51
2022/10/30 05:51:38;;;;;;;14.57;6.03;;;6.60;99.90;;;;;;5074462;28;20052;-50
2022/10/30 05:54:04;;;;;;;10.65;5.40;;;6.60;99.90;;;;;;5074372;28;20036;-51
2022/10/30 05:56:29;;;;;;;12.35;6.93;;;6.60;99.90;;;;;;5074125;28;20028;-50
2022/10/30 05:58:55;;;;;;;11.65;5.88;;;6.60;99.90;;;;;;5074261;28;20467;-50
2022/10/30 06:01:20;;;;;;;12.32;5.78;;;6.60;99.90;;;;;;5073780;28;20046;-50
2022/10/30 06:03:46;;;;;;;9.55;6.45;;;6.60;99.90;;;;;;5073807;28;20491;-52
2022/10/30 06:06:12;;;;;;;11.05;6.13;;;6.60;99.90;;;;;;5073935;28;20444;-51
2022/10/30 06:08:37;;;;;;;12.25;6.68;;;6.60;99.90;;;;;;5073608;28;20037;-52
2022/10/30 06:11:03;;;;;;;19.65;6.40;;;6.70;99.90;;;;;;5073829;28;20407;-51
2022/10/30 06:13:30;;;;;;;14.07;7.00;;;6.70;99.90;;;;;;5073866;28;20052;-53
2022/10/30 06:15:56;;;;;;;22.92;12.35;;;6.70;99.90;;;;;;5074027;28;20082;-53
2022/10/30 06:18:22;;;;;;;12.80;8.43;;;6.70;99.90;;;;;;5073805;28;20078;-51
2022/10/30 06:20:48;;;;;;;103.80;34.47;;;6.80;99.90;;;;;;5073898;28;20468;-50
2022/10/30 06:23:14;;;;;;;228.35;73.78;;;6.80;99.90;;;;;;5073634;28;20052;-54
2022/10/30 06:25:40;;;;;;;47.17;22.52;;;6.90;99.90;;;;;;5073784;28;20065;-52
2022/10/30 06:28:05;;;;;;;17.65;8.80;;;7.00;99.90;;;;;;5073835;28;20032;-50
2022/10/30 06:30:32;;;;;;;11.35;6.72;;;7.00;99.90;;;;;;5073682;28;20084;-53
2022/10/30 06:32:58;;;;;;;14.88;5.40;;;7.10;99.90;;;;;;5073536;28;20403;-54
2022/10/30 06:35:24;;;;;;;14.50;5.68;;;7.20;99.90;;;;;;5073829;28;20403;-50
2022/10/30 06:37:52;;;;;;;14.05;6.03;;;7.20;99.90;;;;;;5073600;28;20033;-52
2022/10/30 06:40:18;;;;;;;20.08;6.55;;;7.30;99.90;;;;;;5073409;28;20029;-50
2022/10/30 06:42:44;;;;;;;13.90;6.40;;;7.40;99.90;;;;;;5073419;28;20418;-51
2022/10/30 06:45:11;;;;;;;12.07;5.40;;;7.40;99.90;;;;;;5072942;28;20028;-54
2022/10/30 06:47:37;;;;;;;15.80;6.53;;;7.50;99.90;;;;;;5071723;28;20036;-53
2022/10/30 06:50:07;;;;;;;14.43;6.10;;;7.60;99.90;;;;;;5072814;28;20020;-53
2022/10/30 06:52:33;;;;;;;15.13;5.85;;;7.70;99.90;;;;;;5072145;28;20119;-52
2022/10/30 06:54:59;;;;;;;8.75;5.32;;;7.70;99.90;;;;;;5072059;28;20111;-51
2022/10/30 06:57:24;;;;;;;13.32;5.55;;;7.80;99.90;;;;;;5072525;28;20032;-51
2022/10/30 06:59:50;;;;;;;13.73;5.93;;;7.90;99.90;;;;;;5071763;28;20032;-51
2022/10/30 07:02:16;;;;;;;13.95;6.03;;;8.00;99.90;;;;;;5071245;28;20073;-52
2022/10/30 07:04:41;;;;;;;15.38;6.80;;;8.10;99.90;;;;;;5072180;28;20639;-51
2022/10/30 07:07:07;;;;;;;17.13;7.78;;;8.20;99.90;;;;;;5072259;28;20055;-51
2022/10/30 07:09:33;;;;;;;13.63;6.97;;;8.30;99.90;;;;;;5072420;28;20048;-53
2022/10/30 07:11:59;;;;;;;13.90;7.05;;;8.40;99.90;;;;;;5072536;28;20032;-53
2022/10/30 07:14:24;;;;;;;12.40;6.93;;;8.50;99.90;;;;;;5072098;28;20035;-52
2022/10/30 07:16:50;;;;;;;21.23;9.70;;;8.60;99.90;;;;;;5071873;28;20024;-52
2022/10/30 07:19:15;;;;;;;16.33;11.20;;;8.70;99.90;;;;;;5071305;28;20043;-52
2022/10/30 07:21:41;;;;;;;28.25;12.60;;;8.80;99.90;;;;;;5072409;28;20035;-51
2022/10/30 07:24:07;;;;;;;25.52;15.05;;;8.90;99.90;;;;;;5072231;28;20056;-51
2022/10/30 07:26:36;;;;;;;30.67;17.15;;;9.00;99.90;;;;;;5072379;28;20060;-51
2022/10/30 07:29:05;;;;;;;23.73;17.73;;;9.10;99.90;;;;;;5072433;28;20131;-52
2022/10/30 07:31:31;;;;;;;24.67;14.50;;;9.30;99.90;;;;;;5072375;28;20701;-54
2022/10/30 07:33:56;;;;;;;29.40;13.23;;;9.40;99.90;;;;;;5072446;28;20027;-51
2022/10/30 07:36:22;;;;;;;23.02;12.70;;;9.60;99.90;;;;;;5072360;28;20406;-52
2022/10/30 07:38:49;;;;;;;23.80;11.60;;;9.80;99.90;;;;;;5072242;28;20621;-52
2022/10/30 07:41:18;;;;;;;21.75;13.02;;;10.00;99.90;;;;;;5072010;28;20435;-51
2022/10/30 07:43:44;;;;;;;24.25;12.75;;;10.20;99.90;;;;;;5071129;28;20074;-51
2022/10/30 07:46:10;;;;;;;17.92;11.10;;;10.40;99.90;;;;;;5071692;28;20056;-50
2022/10/30 07:48:36;;;;;;;24.75;10.70;;;10.60;99.90;;;;;;5071587;28;20052;-50
2022/10/30 07:51:01;;;;;;;23.23;12.15;;;10.70;99.90;;;;;;5072056;28;20100;-51
2022/10/30 07:53:27;;;;;;;21.70;10.32;;;10.90;99.90;;;;;;5071580;28;20408;-53
2022/10/30 07:55:53;;;;;;;14.27;8.38;;;11.10;99.90;;;;;;5071548;28;20032;-51
2022/10/30 07:58:18;;;;;;;19.55;7.78;;;11.30;99.90;;;;;;5071538;28;20395;-60
2022/10/30 08:00:44;;;;;;;18.10;8.98;;;11.50;99.90;;;;;;5071848;28;20032;-51
2022/10/30 08:03:11;;;;;;;18.42;11.00;;;11.70;99.90;;;;;;5071936;28;20471;-49
2022/10/30 08:05:36;;;;;;;20.73;10.10;;;11.80;99.90;;;;;;5071800;28;20459;-50
2022/10/30 08:08:02;;;;;;;19.08;8.75;;;12.00;99.90;;;;;;5071657;28;20078;-54
2022/10/30 08:10:28;;;;;;;18.25;8.20;;;12.10;99.90;;;;;;5071707;28;20031;-61
2022/10/30 08:12:54;;;;;;;19.23;7.95;;;12.30;99.90;;;;;;5071912;28;20020;-54
2022/10/30 08:15:19;;;;;;;18.88;8.15;;;12.50;99.90;;;;;;5070327;28;20098;-56
2022/10/30 08:17:47;;;;;;;13.82;7.22;;;12.60;99.90;;;;;;5071799;28;20029;-52
2022/10/30 08:20:15;;;;;;;21.35;6.07;;;12.80;99.90;;;;;;5070165;28;20383;-52
2022/10/30 08:22:51;;;;;;;20.90;8.30;;;13.10;99.90;;;;;;5071663;28;20020;-53
2022/10/30 08:25:19;;;;;;;19.65;7.05;;;13.30;99.90;;;;;;5071285;28;20028;-53
2022/10/30 08:27:54;;;;;;;13.77;5.18;;;13.40;99.90;;;;;;5070834;28;20478;-52
2022/10/30 08:30:20;;;;;;;21.40;6.88;;;13.70;99.90;;;;;;5071498;28;20032;-52
2022/10/30 08:32:45;;;;;;;23.42;4.93;;;13.90;99.90;;;;;;5070435;28;20048;-53
2022/10/30 08:35:11;;;;;;;21.48;6.57;;;14.10;99.90;;;;;;5071223;28;20020;-56
2022/10/30 08:37:37;;;;;;;15.40;7.90;;;14.30;99.90;;;;;;5071466;28;20523;-53
2022/10/30 08:40:03;;;;;;;20.63;7.47;;;14.60;99.90;;;;;;5071387;28;20069;-51
2022/10/30 08:42:29;;;;;;;28.25;9.00;;;14.80;99.90;;;;;;5071296;28;20025;-51
2022/10/30 08:44:54;;;;;;;15.45;6.50;;;15.00;99.90;;;;;;5071389;28;20475;-55
2022/10/30 08:47:20;;;;;;;18.58;7.45;;;15.20;99.90;;;;;;5070023;28;20032;-52
2022/10/30 08:49:45;;;;;;;16.08;6.35;;;15.50;99.90;;;;;;5071064;28;20028;-53
2022/10/30 08:52:11;;;;;;;14.93;5.50;;;15.80;99.90;;;;;;5070918;28;20016;-52
2022/10/30 08:54:37;;;;;;;25.75;6.15;;;16.00;99.90;;;;;;5070892;28;20116;-53
2022/10/30 08:57:02;;;;;;;15.77;6.30;;;16.30;99.90;;;;;;5071368;28;20440;-54
2022/10/30 08:59:28;;;;;;;13.85;6.45;;;16.50;99.90;;;;;;5069937;28;20035;-52
2022/10/30 09:01:54;;;;;;;15.50;6.75;;;16.70;99.90;;;;;;5071167;28;20056;-52
2022/10/30 09:04:19;;;;;;;22.00;6.95;;;16.70;99.90;;;;;;5070380;28;20024;-55
2022/10/30 09:06:45;;;;;;;24.08;7.45;;;16.90;99.90;;;;;;5070349;28;20059;-55
2022/10/30 09:09:10;;;;;;;24.95;8.25;;;17.00;99.90;;;;;;5070726;28;20052;-53
2022/10/30 09:11:36;;;;;;;20.95;7.78;;;16.90;99.90;;;;;;5070763;28;20025;-56
2022/10/30 09:14:02;;;;;;;32.42;8.88;;;16.90;99.90;;;;;;5070942;28;20112;-56
2022/10/30 09:16:28;;;;;;;15.60;7.05;;;16.80;99.90;;;;;;5070771;28;20107;-54
2022/10/30 09:18:53;;;;;;;17.92;7.43;;;16.90;99.90;;;;;;5071190;28;20028;-54
2022/10/30 09:21:19;;;;;;;13.88;7.22;;;17.00;99.90;;;;;;5070776;28;20029;-54
2022/10/30 09:23:45;;;;;;;22.00;6.38;;;17.00;99.90;;;;;;5071050;28;20488;-53
2022/10/30 09:26:10;;;;;;;29.92;7.43;;;17.10;99.90;;;;;;5070380;28;20107;-52
2022/10/30 09:28:36;;;;;;;25.83;7.22;;;17.50;99.90;;;;;;5070028;28;20017;-53
2022/10/30 09:31:02;;;;;;;25.77;7.13;;;17.60;99.90;;;;;;5070221;28;20029;-54
2022/10/30 09:33:28;;;;;;;24.60;6.57;;;17.90;99.90;;;;;;5070322;28;20027;-55
2022/10/30 09:35:53;;;;;;;14.65;6.70;;;18.10;99.90;;;;;;5070446;28;20691;-55
2022/10/30 09:38:19;;;;;;;21.15;7.35;;;18.50;99.90;;;;;;5071320;28;20029;-56
2022/10/30 09:41:12;;;;;;;33.20;8.65;;;18.70;99.90;;;;;;5074055;28;20395;-55
2022/10/30 09:43:54;;;;;;;31.02;7.95;;;18.90;99.90;;;;;;5073990;28;20044;-52
2022/10/30 09:46:37;;;;;;;25.83;8.32;;;19.20;99.90;;;;;;5073544;28;20013;-52
2022/10/30 09:49:08;;;;;;;27.67;10.93;;;20.00;99.60;;;;;;5074137;28;20024;-52
2022/10/30 09:52:05;;;;;;;25.23;7.13;;;20.90;96.90;;;;;;5073580;28;20108;-54
2022/10/30 09:54:46;;;;;;;20.17;7.05;;;21.90;95.70;;;;;;5073595;28;20036;-53
2022/10/30 09:57:52;;;;;;;22.52;6.40;;;23.30;93.20;;;;;;5073522;28;20033;-56
2022/10/30 10:00:21;;;;;;;17.90;6.75;;;24.00;91.40;;;;;;5060944;28;20045;-51
2022/10/30 10:03:18;;;;;;;18.65;6.97;;;24.50;90.20;;;;;;5073569;28;20017;-54
2022/10/30 10:05:51;;;;;;;22.60;5.55;;;24.80;84.20;;;;;;5073885;28;20081;-54
2022/10/30 10:08:20;;;;;;;;;;;24.40;79.50;;;;;;5073212;28;20139;-53
2022/10/30 10:10:52;;;;;;;26.58;5.70;;;24.60;77.80;;;;;;5073357;28;19904;-56
2022/10/30 10:13:32;;;;;;;21.67;4.82;;;24.90;77.50;;;;;;5073233;28;20016;-52
2022/10/30 10:16:24;;;;;;;14.75;5.45;;;25.10;74.10;;;;;;5073370;28;20028;-57
2022/10/30 10:19:14;;;;;;;20.05;5.70;;;25.40;73.60;;;;;;5073014;28;20123;-55
2022/10/30 10:21:48;;;;;;;21.23;4.90;;;25.40;70.80;;;;;;5073362;28;20116;-54
2022/10/30 10:24:18;;;;;;;20.38;5.07;;;26.00;71.80;;;;;;5071714;28;20028;-53
2022/10/30 10:27:03;;;;;;;22.65;5.70;;;25.40;70.10;;;;;;5071961;28;20036;-54
2022/10/30 10:29:36;;;;;;;21.30;6.38;;;25.30;71.50;;;;;;5073314;28;20611;-54
2022/10/30 10:32:20;;;;;;;14.00;5.25;;;25.30;73.90;;;;;;5073267;28;20503;-54
2022/10/30 10:35:04;;;;;;;21.80;6.72;;;25.60;73.30;;;;;;5071746;28;20039;-53
2022/10/30 10:37:36;;;;;;;24.65;5.55;;;25.40;73.10;;;;;;5072641;28;20032;-53
2022/10/30 10:40:39;;;;;;;32.45;6.28;;;25.40;73.70;;;;;;5072435;28;20032;-55
2022/10/30 10:43:12;;;;;;;20.67;5.75;;;25.20;72.50;;;;;;5073207;28;20036;-52
2022/10/30 10:45:53;;;;;;;20.88;5.35;;;25.70;69.80;;;;;;5073295;28;20036;-53
2022/10/30 10:48:47;;;;;;;17.63;5.03;;;25.90;70.40;;;;;;5073123;28;20615;-54
2022/10/30 10:51:24;;;;;;;24.60;4.90;;;25.70;69.10;;;;;;5062467;28;20044;-55
2022/10/30 10:54:09;;;;;;;20.35;5.65;;;25.90;71.60;;;;;;5073139;28;20407;-54
2022/10/30 10:56:39;;;;;;;13.57;5.03;;;26.10;71.40;;;;;;5073022;28;20024;-55
2022/10/30 10:59:17;;;;;;;18.50;5.55;;;26.70;69.90;;;;;;5073036;28;20123;-53
2022/10/30 11:01:50;;;;;;;20.42;5.10;;;26.60;71.60;;;;;;5072752;28;20586;-54
2022/10/30 11:04:33;;;;;;;18.55;6.15;;;26.80;70.30;;;;;;5072785;28;20056;-56
2022/10/30 11:07:25;;;;;;;20.77;5.22;;;26.50;69.50;;;;;;5071744;28;20460;-52
2022/10/30 11:09:53;;;;;;;18.92;4.45;;;26.60;67.60;;;;;;5072481;28;20053;-55
2022/10/30 11:12:28;;;;;;;23.77;5.70;;;26.60;69.10;;;;;;5072814;28;20128;-55
2022/10/30 11:14:57;;;;;;;14.95;6.28;;;26.70;68.50;;;;;;5072857;28;20066;-55
2022/10/30 11:17:40;;;;;;;19.52;5.40;;;27.50;67.50;;;;;;5072829;28;20079;-56
2022/10/30 11:20:20;;;;;;;23.60;5.43;;;27.70;65.90;;;;;;5072733;28;20017;-55
2022/10/30 11:22:50;;;;;;;16.30;4.72;;;27.10;67.20;;;;;;5072658;28;20025;-55
2022/10/30 11:25:24;;;;;;;26.00;5.60;;;26.90;68.60;;;;;;5072355;28;20480;-55
2022/10/30 11:28:03;;;;;;;22.20;5.18;;;26.90;68.80;;;;;;5072686;28;20078;-53
2022/10/30 11:30:29;;;;;;;20.23;5.57;;;26.80;69.30;;;;;;5072204;28;20032;-55
2022/10/30 11:32:56;;;;;;;20.88;5.25;;;26.90;69.20;;;;;;5071923;28;20043;-56
2022/10/30 11:35:22;;;;;;;19.20;5.45;;;27.10;69.90;;;;;;5071913;28;20020;-56
2022/10/30 11:37:50;;;;;;;22.13;5.53;;;27.30;69.20;;;;;;5072130;28;20031;-56
2022/10/30 11:40:21;;;;;;;21.35;6.10;;;27.10;68.80;;;;;;5072103;28;20024;-54
2022/10/30 11:43:00;;;;;;;31.48;6.53;;;27.00;67.70;;;;;;5048369;28;20071;-55
2022/10/30 11:45:36;;;;;;;18.73;6.15;;;27.00;68.20;;;;;;5040467;28;20460;-56
2022/10/30 11:48:18;;;;;;;32.30;6.40;;;27.00;70.20;;;;;;5041959;28;20045;-52
2022/10/30 11:50:48;;;;;;;21.60;5.73;;;27.20;69.30;;;;;;5044806;28;20365;-54
2022/10/30 11:53:29;;;;;;;18.10;5.55;;;26.90;67.10;;;;;;5047433;28;20049;-55
2022/10/30 11:55:57;;;;;;;23.73;5.85;;;26.80;68.70;;;;;;5040728;28;20364;-54
2022/10/30 11:58:34;;;;;;;31.02;6.20;;;27.10;70.40;;;;;;5041488;28;20037;-55
2022/10/30 12:01:10;;;;;;;18.80;5.30;;;27.70;68.40;;;;;;5040747;28;20145;-54
2022/10/30 12:03:39;;;;;;;23.48;5.03;;;28.20;67.40;;;;;;5054565;28;20789;-56
2022/10/30 12:06:07;;;;;;;19.52;4.53;;;28.60;64.90;;;;;;5041386;28;20033;-55
2022/10/30 12:08:33;;;;;;;24.80;5.13;;;28.90;63.60;;;;;;5040729;28;20154;-56
2022/10/30 12:11:02;;;;;;;21.38;5.13;;;28.70;62.80;;;;;;5040201;28;20384;-53
2022/10/30 12:13:35;;;;;;;18.48;4.25;;;28.80;63.40;;;;;;5051313;28;20051;-55
2022/10/30 12:16:06;;;;;;;;;;;28.90;62.60;;;;;;5042777;28;20064;-56
2022/10/30 12:18:32;;;;;;;16.63;5.20;;;29.70;60.90;;;;;;5040677;28;19964;-56
2022/10/30 12:20:59;;;;;;;24.30;4.40;;;30.00;61.80;;;;;;5039786;28;20035;-56
2022/10/30 12:23:27;;;;;;;16.27;4.38;;;29.40;61.10;;;;;;5039567;28;20073;-56
2022/10/30 12:25:55;;;;;;;20.88;4.15;;;29.80;61.50;;;;;;5038956;28;20025;-56
2022/10/30 12:28:30;;;;;;;17.70;4.53;;;29.70;60.60;;;;;;5040972;28;20025;-57
2022/10/30 12:31:13;;;;;;;19.83;5.20;;;29.80;60.60;;;;;;5040616;28;20462;-56
2022/10/30 12:33:54;;;;;;;26.75;5.68;;;30.40;60.20;;;;;;5041296;28;20033;-56
2022/10/30 12:36:23;;;;;;;15.18;4.15;;;30.50;58.70;;;;;;5049035;28;20033;-56
2022/10/30 12:38:55;;;;;;;14.50;4.43;;;29.90;58.70;;;;;;5051460;28;20416;-51
2022/10/30 12:41:33;;;;;;;20.65;4.65;;;29.70;60.20;;;;;;5050785;28;20029;-55
2022/10/30 12:44:26;;;;;;;16.50;4.38;;;29.40;61.80;;;;;;5050439;28;20025;-54
2022/10/30 12:47:02;;;;;;;19.80;4.30;;;29.20;60.50;;;;;;5050305;28;20024;-56
2022/10/30 12:49:44;;;;;;;20.55;4.43;;;29.20;60.70;;;;;;5050031;28;20078;-57
2022/10/30 12:52:32;;;;;;;20.23;4.23;;;29.70;60.10;;;;;;5050065;28;20371;-55
2022/10/30 12:55:17;;;;;;;19.90;4.80;;;29.90;58.80;;;;;;5049889;28;20801;-57
2022/10/30 12:57:49;;;;;;;31.85;4.72;;;29.80;57.60;;;;;;5050021;28;20033;-54